Etusivu
METAR-TAF:

METAR-TAF

Lentoasemat :

Antonio B. Won Patin kansainvälinen lentoasema

Hagåtña, Guam, Yhdysvallat

Leveyspiiri: 13-29N, Pituuspiiri: 144-48E, korkeus merenpinnasta: 91 m

Tämänhetkinen sää

Tämä raportti tehtiin 32 minuuttia sitten, kello 18.54 UTC
Tuuli 3 kn idästä/kaakosta
Lämpötila 27°C
Kosteus 100%
Ilmanpaine 1011 hPa
Näkyvyys: 16.1 km
selkeää

METAR: PGUM 221854Z 12003KT 10SM CLR 27/27 A2985 RMK AO2 SLP101 T02720267 $

Aika: 05:26 (19:26 UTC)

Sääennuste

Tämä raportti tehtiin 2 tuntia ja 6 minuuttia sitten, kello 17.20 UTC
Ennuste voimassa 22. päivästä klo 18 UTC - 23. päivään klo 24 UTC
Tuuli 5 kn idästä
Näkyvyys: 10 km
Muutamia pilviä 2000 ft:n korkeudessa
From 22. päivästä klo 2300 UTC
Tuuli 8 kn idästä
Näkyvyys: 10 km
Hajanaisia pilviä 2000 ft:n korkeudessa
Hajanaisia pilviä 4000 ft:n korkeudessa
sadekuuroja näköpiirissä

TAF: PGUM 221720Z 2218/2324 08005KT P6SM FEW020 FM222300 10008KT P6SM VCSH SCT020 SCT040

Säähavainnot ja -ennusteet yli 4000 lentoasemalta (METAR- ja TAF-raportit).

Käytössä olevat sääasemat on merkitty karttaan keltaisilla ja punaisilla pisteillä.

Aseta hiiri pisteen päälle nähdäksesi sääaseman nimen.

Klikkaa sitten nähdäksesi säähavainnot ja -ennusteet.

Kartan vaihtaminen: klikkaa mustalla rastilla varustettuja vihreitä pisteitä, niin voit zoomata sisään; viivalla varustettua vihreää pistettä, niin voit zoomata ulos tai vihreitä nuolia, niin pääset viereisille kartoille.


METAR-TAF: